Cromona, KY

2:45 AM EDT on April 26, 2015 (GMT -0400)
Carroll | | Change Station
CLOSE
Current Station
Airport
Location: Jackson,
Elevation: 1381 ft
Nearby Weather Stations

Elev 1381 ft 37.59 °N, 83.31 °W | Updated 21 minutes ago

Overcast
Overcast
48 °F
Feels Like 48 °F
N
0
Wind Variable Wind from North

Today
High -- | Low -- °F
--% Chance of Precip.
Yesterday
High -- | Low -- °F
Precip. -- in
6:42 AM 8:15 PM
First Quarter, 53% visible
Pressure 29.60 in
Visibility 0.8 miles
Clouds
Dew Point 46 °F
Humidity 93%
Rainfall 0.01 in
Snow Depth Not available.
UV Not available.
Pollen 4.80 out of 12
Air Quality Not available.
Flu Activity Local Activity
METAR KJKL 260624Z AUTO 00000KT 3/4SM BR VV002 09/08 A2960 RMK AO2 T00890078

More Conditions Fewer Conditions

Pressure 29.60 in
Visibility 0.8 miles
Clouds
Dew Point 46 °F
Humidity 93%
Rainfall 0.01 in
Snow Depth Not available.
UV Not available.
Pollen 4.80 out of 12
Air Quality Not available.
Flu Activity Local Activity
METAR KJKL 260624Z AUTO 00000KT 3/4SM BR VV002 09/08 A2960 RMK AO2 T00890078

More Conditions Fewer Conditions

The full scope of the disaster following a powerful 7.8-magnitude earthquake in Nepal may not come into view for days, but global charities are already sending emergency aid. Click to see how you can help.

10-Day Weather Forecast

Almanac

Astronomy

Apr. 26, 2015 Rise Set
Actual Time
Civil Twilight
Nautical Twilight
Astronomical Twilight
Moon
Length of Visible Light
Length of Day
Tomorrow will be .
, % of the Moon is Illuminated

Today's Extremes

State Highs State Lows

Community

WunderPhotos

Upload Photos

1,816,947 photos uploaded!

WunderBlogs® & News

Nearby

Air Quality

  Air Quality AQ Index Pollutant
Not available.

Snow Depth

Station Depth Elevation

Earthquake Activity

City Distance Mag. Time & Date
Minimum magnitude displayed is 2.5.

Coastal Water Temperatures

Place Temperature

Stations

Nearby Weather Stations

Station Location Temp. Windchill Dew Point Humidity Wind Precip. Elev Updated Type